Time;durP1;ratioP1;P1;durP2;ratioP2;P2;SDS_P1;SDS_P2;PMS_P1;PMS_P2;Temp;Humidity;BMP_temperature;BMP_pressure;BME280_temperature;BME280_humidity;BME280_pressure;Samples;Min_cycle;Max_cycle;Signal;HPM_P1;HPM_P2
2021/11/18 00:00:04;;;;;;;28.38;12.75;;;;;;;4.41;100.00;102476.38;2090406;28;20283;-69
2021/11/18 00:01:05;;;;;;;27.13;12.65;;;;;;;4.43;100.00;102473.81;2091029;28;20032;-70
2021/11/18 00:02:06;;;;;;;28.75;13.50;;;;;;;4.40;100.00;102473.78;2090242;28;20028;-69
2021/11/18 00:03:08;;;;;;;30.57;13.90;;;;;;;4.36;100.00;102484.09;2090395;28;20509;-69
2021/11/18 00:04:08;;;;;;;24.70;13.15;;;;;;;4.33;100.00;102478.03;2090914;28;20032;-69
2021/11/18 00:05:12;;;;;;;30.20;13.97;;;;;;;4.30;100.00;102476.28;2090286;28;20021;-69
2021/11/18 00:06:13;;;;;;;35.55;13.40;;;;;;;4.31;100.00;102487.50;2090442;28;20028;-70
2021/11/18 00:07:13;;;;;;;28.38;13.43;;;;;;;4.29;100.00;102487.47;2090145;28;20474;-70
2021/11/18 00:08:14;;;;;;;28.10;13.53;;;;;;;4.28;100.00;102483.16;2090227;28;20035;-69
2021/11/18 00:09:20;;;;;;;24.40;12.90;;;;;;;4.29;100.00;102482.31;2090925;28;20107;-69
2021/11/18 00:10:26;;;;;;;28.80;13.43;;;;;;;4.30;100.00;102488.31;2090892;28;20035;-70
2021/11/18 00:11:26;;;;;;;34.20;14.50;;;;;;;4.33;100.00;102484.06;2090874;28;20033;-69
2021/11/18 00:12:27;;;;;;;36.37;14.30;;;;;;;4.29;100.00;102481.44;2090911;28;20032;-69
2021/11/18 00:13:31;;;;;;;22.97;13.87;;;;;;;4.26;100.00;102482.28;2090884;28;20021;-69
2021/11/18 00:14:31;;;;;;;31.50;14.50;;;;;;;4.24;100.00;102473.63;2090829;28;20044;-69
2021/11/18 00:15:33;;;;;;;30.10;14.60;;;;;;;4.26;100.00;102477.09;2090905;28;20033;-69
2021/11/18 00:16:34;;;;;;;31.20;13.90;;;;;;;4.25;100.00;102480.53;2090808;28;20086;-69
2021/11/18 00:17:34;;;;;;;29.02;13.98;;;;;;;4.24;100.00;102476.19;2090821;28;20091;-69
2021/11/18 00:18:36;;;;;;;32.33;14.47;;;;;;;4.24;100.00;102477.09;2090865;28;20474;-69
2021/11/18 00:19:37;;;;;;;32.97;14.38;;;;;;;4.24;100.00;102478.78;2090177;28;20017;-69
2021/11/18 00:20:42;;;;;;;30.53;14.07;;;;;;;4.19;100.00;102477.88;2090121;28;20021;-69
2021/11/18 00:21:43;;;;;;;32.80;13.65;;;;;;;4.16;100.00;102483.00;2090636;28;20021;-69
2021/11/18 00:22:45;;;;;;;30.88;14.18;;;;;;;4.12;100.00;102480.41;2090781;28;20347;-69
2021/11/18 00:23:48;;;;;;;31.00;13.07;;;;;;;4.12;100.00;102488.16;2090702;28;20379;-69
2021/11/18 00:24:49;;;;;;;23.88;13.02;;;;;;;4.14;100.00;102483.00;2090592;28;20025;-69
2021/11/18 00:25:49;;;;;;;34.17;13.85;;;;;;;4.11;100.00;102483.81;2090083;28;20017;-69
2021/11/18 00:26:54;;;;;;;29.87;13.30;;;;;;;4.09;100.00;102479.50;2090199;28;20029;-69
2021/11/18 00:27:54;;;;;;;35.95;14.40;;;;;;;4.09;100.00;102479.50;2090735;28;20032;-69
2021/11/18 00:28:55;;;;;;;32.67;13.37;;;;;;;4.09;100.00;102474.31;2090846;28;20445;-69
2021/11/18 00:29:55;;;;;;;34.00;15.52;;;;;;;4.11;100.00;102476.06;2090307;28;20116;-69
2021/11/18 00:30:56;;;;;;;32.97;13.63;;;;;;;4.12;100.00;102484.72;2090084;28;20029;-69
2021/11/18 00:31:56;;;;;;;27.88;13.80;;;;;;;4.11;100.00;102483.81;2090108;28;20036;-69
2021/11/18 00:32:57;;;;;;;37.23;14.13;;;;;;;4.15;100.00;102481.28;2090742;28;20103;-69
2021/11/18 00:33:57;;;;;;;37.53;15.02;;;;;;;4.13;100.00;102486.44;2090689;28;20500;-69
2021/11/18 00:34:57;;;;;;;34.63;14.90;;;;;;;4.12;100.00;102472.66;2090100;28;20043;-69
2021/11/18 00:35:58;;;;;;;33.40;14.00;;;;;;;4.15;100.00;102483.88;2090115;28;20024;-69
2021/11/18 00:36:58;;;;;;;38.53;15.40;;;;;;;4.15;100.00;102483.88;2090860;28;20096;-69
2021/11/18 00:37:59;;;;;;;27.70;15.40;;;;;;;4.12;100.00;102483.00;2090743;28;20033;-69
2021/11/18 00:39:00;;;;;;;33.53;14.47;;;;;;;4.12;100.00;102493.34;2090717;28;20051;-69
2021/11/18 00:40:01;;;;;;;28.35;14.93;;;;;;;4.11;100.00;102493.31;2090087;28;20106;-69
2021/11/18 00:41:03;;;;;;;37.90;15.25;;;;;;;4.11;100.00;102498.47;2090036;28;20083;-68
2021/11/18 00:42:04;;;;;;;38.53;16.33;;;;;;;4.10;100.00;102497.59;2090583;28;20148;-70
2021/11/18 00:43:06;;;;;;;39.80;17.65;;;;;;;4.08;100.00;102494.13;2089989;28;20028;-69
2021/11/18 00:44:07;;;;;;;32.95;16.42;;;;;;;4.11;100.00;102499.34;2089963;28;20024;-69
2021/11/18 00:45:10;;;;;;;37.05;14.88;;;;;;;4.08;100.00;102496.69;2089919;28;20020;-69
2021/11/18 00:46:11;;;;;;;44.88;16.60;;;;;;;4.04;100.00;102502.69;2089970;28;20033;-69
2021/11/18 00:47:11;;;;;;;37.13;15.90;;;;;;;4.05;100.00;102501.88;2090599;28;20115;-69
2021/11/18 00:48:12;;;;;;;29.20;14.83;;;;;;;4.04;100.00;102502.69;2089874;28;20063;-69
2021/11/18 00:49:12;;;;;;;34.15;16.10;;;;;;;4.03;100.00;102506.13;2090041;28;20025;-69
2021/11/18 00:50:13;;;;;;;35.20;15.53;;;;;;;4.04;100.00;102512.19;2089943;28;20037;-69
2021/11/18 00:51:16;;;;;;;38.13;15.90;;;;;;;4.04;100.00;102520.78;2089967;28;20100;-69
2021/11/18 00:52:17;;;;;;;45.40;17.80;;;;;;;4.04;100.00;102518.19;2089892;28;20084;-69
2021/11/18 00:53:18;;;;;;;39.67;17.13;;;;;;;4.03;100.00;102511.28;2090009;28;20060;-68
2021/11/18 00:54:18;;;;;;;36.28;17.30;;;;;;;4.04;100.00;102513.03;2090576;28;20028;-68
2021/11/18 00:55:20;;;;;;;38.73;16.40;;;;;;;4.03;100.00;102506.13;2090535;28;20025;-69
2021/11/18 00:56:22;;;;;;;42.05;16.88;;;;;;;4.02;100.00;102514.75;2090483;28;20052;-68
2021/11/18 00:57:22;;;;;;;36.47;17.00;;;;;;;4.02;100.00;102512.16;2090489;28;20032;-69
2021/11/18 00:58:23;;;;;;;34.97;17.35;;;;;;;4.06;100.00;102515.63;2090574;28;20028;-68
2021/11/18 00:59:24;;;;;;;41.70;17.02;;;;;;;4.09;100.00;102526.00;2090609;28;20024;-69
2021/11/18 01:00:31;;;;;;;40.30;16.45;;;;;;;4.08;100.00;102524.28;2090549;28;20457;-70
2021/11/18 01:01:41;;;;;;;45.03;16.45;;;;;;;4.09;100.00;102526.88;2090545;28;20037;-69
2021/11/18 01:02:43;;;;;;;31.20;15.63;;;;;;;4.10;100.00;102523.44;2090576;28;20028;-68
2021/11/18 01:03:44;;;;;;;44.25;17.30;;;;;;;4.15;100.00;102517.47;2090493;28;20101;-67
2021/11/18 01:04:46;;;;;;;45.47;17.25;;;;;;;4.10;100.00;102515.69;2090499;28;20021;-68
2021/11/18 01:05:49;;;;;;;39.63;17.85;;;;;;;4.08;100.00;102519.97;2090436;28;20017;-70
2021/11/18 01:06:49;;;;;;;38.97;17.52;;;;;;;4.06;100.00;102513.03;2089790;28;20028;-68
2021/11/18 01:07:50;;;;;;;41.33;16.77;;;;;;;4.01;100.00;102515.59;2089813;28;20029;-68
2021/11/18 01:08:50;;;;;;;45.67;17.88;;;;;;;4.00;100.00;102521.59;2090417;28;20025;-68
2021/11/18 01:09:51;;;;;;;44.00;19.53;;;;;;;4.01;100.00;102513.00;2090477;28;20556;-68
2021/11/18 01:10:54;;;;;;;42.20;18.50;;;;;;;4.01;100.00;102512.13;2090515;28;20048;-68
2021/11/18 01:11:54;;;;;;;41.42;20.23;;;;;;;3.98;100.00;102512.97;2089842;28;20086;-70
2021/11/18 01:12:54;;;;;;;49.97;17.67;;;;;;;3.95;100.00;102516.38;2089933;28;20059;-69
2021/11/18 01:13:55;;;;;;;51.50;18.87;;;;;;;3.98;100.00;102520.72;2090495;28;20108;-70
2021/11/18 01:14:55;;;;;;;49.97;20.23;;;;;;;4.04;100.00;102520.78;2090567;28;20066;-70
2021/11/18 01:15:56;;;;;;;49.30;18.05;;;;;;;4.03;100.00;102516.47;2093594;28;20075;-69
2021/11/18 01:16:57;;;;;;;41.58;18.40;;;;;;;4.00;100.00;102516.41;2094470;28;20044;-68
2021/11/18 01:17:58;;;;;;;45.88;18.95;;;;;;;3.98;100.00;102512.97;2094882;28;20025;-69
2021/11/18 01:18:58;;;;;;;47.53;18.58;;;;;;;3.94;100.00;102514.63;2094182;28;20087;-69
2021/11/18 01:19:59;;;;;;;43.03;19.25;;;;;;;3.96;100.00;102515.53;2094064;28;20029;-70
2021/11/18 01:21:02;;;;;;;44.90;19.57;;;;;;;3.94;100.00;102511.19;2093983;28;20029;-69
2021/11/18 01:22:04;;;;;;;41.20;17.42;;;;;;;3.93;100.00;102497.41;2093113;28;20028;-69
2021/11/18 01:23:08;;;;;;;51.55;19.92;;;;;;;3.94;100.00;102495.69;2091441;28;20037;-70
2021/11/18 01:24:09;;;;;;;46.03;21.77;;;;;;;3.97;100.00;102495.75;2091188;28;20033;-69
2021/11/18 01:25:12;;;;;;;46.80;21.38;;;;;;;3.97;100.00;102508.66;2090841;28;20057;-69
2021/11/18 01:26:15;;;;;;;46.95;19.73;;;;;;;3.97;100.00;102506.06;2090382;28;20025;-69
2021/11/18 01:27:15;;;;;;;49.78;19.73;;;;;;;3.95;100.00;102506.06;2090659;28;20048;-70
2021/11/18 01:28:16;;;;;;;53.93;20.63;;;;;;;3.93;100.00;102515.47;2090845;28;20130;-70
2021/11/18 01:29:17;;;;;;;50.35;20.02;;;;;;;3.93;100.00;102512.06;2090341;28;20028;-69
2021/11/18 01:30:23;;;;;;;45.83;20.30;;;;;;;3.93;100.00;102514.63;2090328;28;20484;-69
2021/11/18 01:31:23;;;;;;;51.63;19.33;;;;;;;3.91;100.00;102518.91;2089574;28;20025;-69
2021/11/18 01:32:23;;;;;;;56.57;20.07;;;;;;;3.92;100.00;102523.22;2089829;28;20024;-69
2021/11/18 01:33:24;;;;;;;56.70;21.63;;;;;;;3.93;100.00;102515.47;2090152;28;20459;-69
2021/11/18 01:34:26;;;;;;;49.53;21.05;;;;;;;3.92;100.00;102523.22;2090312;28;20541;-69
2021/11/18 01:35:26;;;;;;;49.38;20.70;;;;;;;3.91;100.00;102522.38;2090263;28;20028;-70
2021/11/18 01:36:27;;;;;;;44.77;19.33;;;;;;;3.91;100.00;102516.31;2090266;28;20539;-67
2021/11/18 01:37:27;;;;;;;44.23;18.93;;;;;;;3.93;100.00;102510.31;2090313;28;20020;-68
2021/11/18 01:38:28;;;;;;;47.73;19.73;;;;;;;3.94;100.00;102500.88;2090248;28;20397;-68
2021/11/18 01:39:29;;;;;;;55.17;20.85;;;;;;;3.93;100.00;102504.31;2090265;28;20056;-68
2021/11/18 01:40:34;;;;;;;45.30;18.55;;;;;;;3.91;100.00;102501.69;2090253;28;20024;-68
2021/11/18 01:41:37;;;;;;;48.92;19.80;;;;;;;3.92;100.00;102506.00;2089427;28;20025;-68
2021/11/18 01:42:37;;;;;;;49.83;20.00;;;;;;;3.91;100.00;102516.31;2090230;28;20048;-69
2021/11/18 01:43:41;;;;;;;51.87;20.70;;;;;;;3.91;100.00;102518.91;2090205;28;20025;-69
2021/11/18 01:44:45;;;;;;;58.03;20.23;;;;;;;3.90;100.00;102509.44;2090067;28;20083;-67
2021/11/18 01:45:46;;;;;;;49.00;18.40;;;;;;;3.86;100.00;102519.72;2090088;28;20013;-70
2021/11/18 01:46:47;;;;;;;55.10;21.02;;;;;;;3.82;100.00;102517.94;2090203;28;20067;-69
2021/11/18 01:47:47;;;;;;;47.17;19.80;;;;;;;3.81;100.00;102516.22;2089581;28;20032;-69
2021/11/18 01:48:49;;;;;;;43.53;19.17;;;;;;;3.82;100.00;102517.94;2089646;28;20025;-70
2021/11/18 01:49:50;;;;;;;48.55;19.48;;;;;;;3.84;100.00;102518.81;2089504;28;20067;-69
2021/11/18 01:50:52;;;;;;;48.20;20.85;;;;;;;3.83;100.00;102519.66;2089598;28;20494;-68
2021/11/18 01:51:56;;;;;;;45.63;21.13;;;;;;;3.85;100.00;102518.00;2089471;28;20488;-69
2021/11/18 01:52:59;;;;;;;49.50;20.23;;;;;;;3.87;100.00;102530.94;2089578;28;20064;-68
2021/11/18 01:54:00;;;;;;;47.38;19.10;;;;;;;3.88;100.00;102526.59;2090082;28;20037;-68
2021/11/18 01:55:01;;;;;;;;;;;;;;;3.84;100.00;102525.72;2090535;28;20056;-68
2021/11/18 01:56:29;;;;;;;46.72;18.65;;;;;;;3.86;100.00;102534.34;2090143;28;19912;-68
2021/11/18 01:57:33;;;;;;;47.35;18.63;;;;;;;3.90;100.00;102535.25;2088855;28;20075;-69
2021/11/18 01:58:35;;;;;;;58.30;20.88;;;;;;;3.87;100.00;102528.34;2090108;28;20390;-69
2021/11/18 01:59:39;;;;;;;47.30;20.40;;;;;;;3.85;100.00;102533.50;2089418;28;20112;-69
2021/11/18 02:00:48;;;;;;;42.20;19.35;;;;;;;3.81;100.00;102529.13;2089541;28;20028;-69
2021/11/18 02:01:51;;;;;;;41.22;18.38;;;;;;;3.81;100.00;102531.72;2090110;28;20035;-69
2021/11/18 02:02:51;;;;;;;47.63;17.48;;;;;;;3.81;100.00;102529.13;2090043;28;20031;-68
2021/11/18 02:03:52;;;;;;;50.43;17.60;;;;;;;3.79;100.00;102538.56;2090154;28;20025;-68
2021/11/18 02:05:09;;;;;;;45.35;20.40;;;;;;;3.75;100.00;102539.38;2090143;28;20013;-68
2021/11/18 02:06:17;;;;;;;37.97;18.08;;;;;;;3.74;100.00;102540.22;2089423;28;20115;-68
2021/11/18 02:07:18;;;;;;;43.20;20.20;;;;;;;3.71;100.00;102546.22;2089495;28;20584;-68
2021/11/18 02:08:18;;;;;;;46.65;18.33;;;;;;;3.71;100.00;102542.75;2090100;28;20124;-69
2021/11/18 02:09:23;;;;;;;46.37;17.40;;;;;;;3.69;100.00;102541.84;2090085;28;20033;-69
2021/11/18 02:10:32;;;;;;;49.28;20.23;;;;;;;3.67;100.00;102544.44;2090013;28;20287;-68
2021/11/18 02:11:39;;;;;;;49.90;19.65;;;;;;;3.68;100.00;102545.28;2090050;28;20478;-69
2021/11/18 02:12:39;;;;;;;46.28;18.38;;;;;;;3.67;100.00;102548.72;2089382;28;20591;-69
2021/11/18 02:13:39;;;;;;;41.20;18.50;;;;;;;3.63;100.00;102552.13;2081125;28;20065;-68
2021/11/18 02:14:40;;;;;;;58.57;19.20;;;;;;;3.62;100.00;102551.22;2089512;28;20494;-69
2021/11/18 02:15:44;;;;;;;59.85;18.98;;;;;;;3.60;100.00;102548.63;2090085;28;20017;-68
2021/11/18 02:16:47;;;;;;;37.35;17.75;;;;;;;3.64;100.00;102543.50;2090010;28;20028;-68
2021/11/18 02:17:47;;;;;;;51.78;20.75;;;;;;;3.66;100.00;102547.00;2089397;28;20025;-70
2021/11/18 02:18:48;;;;;;;48.73;18.13;;;;;;;3.65;100.00;102542.66;2089395;28;20020;-70
2021/11/18 02:20:04;;;;;;;41.60;18.38;;;;;;;3.65;100.00;102540.06;2089398;28;20025;-69
2021/11/18 02:21:15;;;;;;;46.78;19.17;;;;;;;3.62;100.00;102548.66;2090032;28;20106;-68
2021/11/18 02:22:17;;;;;;;53.85;20.00;;;;;;;3.60;100.00;102540.88;2089973;28;20404;-68
2021/11/18 02:23:24;;;;;;;44.38;17.88;;;;;;;3.61;100.00;102544.34;2090025;28;20367;-69
2021/11/18 02:24:27;;;;;;;41.88;18.90;;;;;;;3.61;100.00;102534.00;2089325;28;20070;-68
2021/11/18 02:25:30;;;;;;;50.83;20.00;;;;;;;3.59;100.00;102546.91;2089325;28;20040;-69
2021/11/18 02:26:31;;;;;;;48.75;19.92;;;;;;;3.60;100.00;102546.03;2090036;28;20029;-69
2021/11/18 02:27:32;;;;;;;46.50;17.50;;;;;;;3.56;100.00;102541.69;2089252;28;20521;-69
2021/11/18 02:28:36;;;;;;;50.20;20.13;;;;;;;3.59;100.00;102536.56;2089427;28;20036;-68
2021/11/18 02:29:36;;;;;;;43.67;18.15;;;;;;;3.58;100.00;102532.25;2089457;28;20090;-68
2021/11/18 02:30:39;;;;;;;47.78;19.88;;;;;;;3.58;100.00;102540.00;2089490;28;20461;-69
2021/11/18 02:31:47;;;;;;;45.25;20.55;;;;;;;3.62;100.00;102534.88;2090008;28;20102;-68
2021/11/18 02:32:48;;;;;;;39.60;18.05;;;;;;;3.62;100.00;102534.88;2089982;28;20021;-68
2021/11/18 02:33:50;;;;;;;45.15;18.83;;;;;;;3.65;100.00;102537.50;2089968;28;20431;-69
2021/11/18 02:35:20;;;;;;;53.95;18.33;;;;;;;3.62;100.00;102545.22;2090046;28;20021;-68
2021/11/18 02:36:21;;;;;;;50.80;18.23;;;;;;;3.62;100.00;102535.75;2085650;28;20084;-69
2021/11/18 02:37:22;;;;;;;41.85;18.42;;;;;;;3.63;100.00;102536.63;2089475;28;20036;-69
2021/11/18 02:38:22;;;;;;;42.22;19.17;;;;;;;3.63;100.00;102531.44;2089278;28;20029;-68
2021/11/18 02:39:22;;;;;;;39.87;17.60;;;;;;;3.65;100.00;102532.31;2089500;28;20083;-68
2021/11/18 02:40:26;;;;;;;40.43;18.00;;;;;;;3.62;100.00;102529.72;2089918;28;20028;-70
2021/11/18 02:41:26;;;;;;;46.83;17.92;;;;;;;3.61;100.00;102528.84;2089979;28;20112;-68
2021/11/18 02:42:27;;;;;;;44.27;18.13;;;;;;;3.60;100.00;102532.28;2090007;28;20025;-68
2021/11/18 02:43:28;;;;;;;44.20;17.50;;;;;;;3.59;100.00;102535.69;2089933;28;20053;-70
2021/11/18 02:44:29;;;;;;;49.80;17.70;;;;;;;3.58;100.00;102532.25;2090075;28;20025;-68
2021/11/18 02:45:34;;;;;;;42.95;18.67;;;;;;;3.59;100.00;102541.72;2089971;28;20025;-69
2021/11/18 02:46:35;;;;;;;40.63;17.30;;;;;;;3.61;100.00;102536.59;2089851;28;20029;-68
2021/11/18 02:47:36;;;;;;;42.92;18.52;;;;;;;3.60;100.00;102543.47;2089835;28;20029;-68
2021/11/18 02:48:37;;;;;;;45.15;19.50;;;;;;;3.64;100.00;102551.25;2089289;28;20048;-69
2021/11/18 02:49:46;;;;;;;47.65;19.35;;;;;;;3.66;100.00;102547.00;2089435;28;20048;-69
2021/11/18 02:50:53;;;;;;;45.08;17.05;;;;;;;3.68;100.00;102541.00;2090224;28;20021;-68
2021/11/18 02:51:53;;;;;;;38.97;17.33;;;;;;;3.69;100.00;102547.00;2089787;28;20131;-68
2021/11/18 02:52:53;;;;;;;46.13;18.80;;;;;;;3.70;100.00;102543.59;2090439;28;20029;-68
2021/11/18 02:53:54;;;;;;;43.42;18.52;;;;;;;3.73;100.00;102541.06;2091462;28;20505;-68
2021/11/18 02:54:56;;;;;;;36.63;17.13;;;;;;;3.76;100.00;102545.41;2091750;28;20025;-69
2021/11/18 02:55:58;;;;;;;39.38;17.77;;;;;;;3.80;100.00;102545.44;2091420;28;20294;-69
2021/11/18 02:56:58;;;;;;;;;;;;;;;3.83;100.00;102544.66;2091845;28;20100;-69
2021/11/18 02:57:59;;;;;;;38.63;16.60;;;;;;;3.84;100.00;102546.38;2091416;28;19966;-69
2021/11/18 02:59:00;;;;;;;46.83;18.33;;;;;;;3.86;100.00;102540.38;2091407;28;20478;-69
2021/11/18 03:00:01;;;;;;;44.20;19.42;;;;;;;3.90;100.00;102543.00;2091531;28;20025;-68
2021/11/18 03:01:06;;;;;;;42.37;19.37;;;;;;;3.92;100.00;102534.44;2091493;28;20390;-68
2021/11/18 03:02:08;;;;;;;52.60;18.75;;;;;;;3.94;100.00;102547.38;2091525;28;20287;-68
2021/11/18 03:03:09;;;;;;;43.17;18.00;;;;;;;3.94;100.00;102539.63;2090763;28;20389;-68
2021/11/18 03:04:10;;;;;;;42.22;18.75;;;;;;;3.93;100.00;102545.63;2090824;28;20025;-68
2021/11/18 03:05:11;;;;;;;42.38;18.25;;;;;;;3.92;100.00;102543.88;2091472;28;20025;-68
2021/11/18 03:06:12;;;;;;;38.35;17.58;;;;;;;3.92;100.00;102544.75;2091441;28;20104;-68
2021/11/18 03:07:12;;;;;;;45.80;17.40;;;;;;;3.93;100.00;102540.47;2091390;28;20474;-70
2021/11/18 03:08:13;;;;;;;51.77;20.03;;;;;;;3.94;100.00;102547.38;2091334;28;20021;-68
2021/11/18 03:09:13;;;;;;;51.65;19.25;;;;;;;3.93;100.00;102550.81;2090710;28;20017;-69
2021/11/18 03:10:16;;;;;;;47.90;18.40;;;;;;;3.93;100.00;102545.63;2090693;28;20071;-69
2021/11/18 03:11:19;;;;;;;42.13;17.63;;;;;;;3.94;100.00;102555.13;2090702;28;20052;-69
2021/11/18 03:12:20;;;;;;;47.33;19.23;;;;;;;3.93;100.00;102549.06;2091325;28;20041;-70
2021/11/18 03:13:21;;;;;;;;;;;;;;;3.94;100.00;102553.38;2091695;28;20032;-69
2021/11/18 03:14:22;;;;;;;50.97;16.67;;;;;;;3.95;100.00;102549.09;2094101;28;20012;-69
2021/11/18 03:15:23;;;;;;;40.42;18.65;;;;;;;3.95;100.00;102552.56;2091349;28;20657;-69
2021/11/18 03:16:24;;;;;;;47.50;19.05;;;;;;;3.97;100.00;102557.75;2091326;28;20025;-69
2021/11/18 03:17:24;;;;;;;48.83;18.02;;;;;;;3.97;100.00;102552.56;2091249;28;20168;-70
2021/11/18 03:18:26;;;;;;;44.40;19.53;;;;;;;3.99;100.00;102561.19;2091300;28;20029;-69
2021/11/18 03:19:27;;;;;;;56.53;23.38;;;;;;;3.97;100.00;102552.56;2090655;28;20064;-69
2021/11/18 03:20:30;;;;;;;43.58;21.58;;;;;;;3.96;100.00;102551.69;2082407;28;20021;-69
2021/11/18 03:21:30;;;;;;;46.03;18.98;;;;;;;3.97;100.00;102547.41;2090705;28;20029;-69
2021/11/18 03:22:31;;;;;;;48.53;19.57;;;;;;;3.95;100.00;102536.19;2091320;28;20028;-68
2021/11/18 03:23:31;;;;;;;47.93;20.40;;;;;;;3.94;100.00;102542.19;2091250;28;20029;-68
2021/11/18 03:24:32;;;;;;;51.90;19.02;;;;;;;3.92;100.00;102546.47;2091296;28;20037;-67
2021/11/18 03:25:35;;;;;;;55.33;20.47;;;;;;;3.93;100.00;102541.31;2091134;28;20053;-68
2021/11/18 03:26:35;;;;;;;46.10;18.17;;;;;;;3.94;100.00;102537.03;2091234;28;20032;-68
2021/11/18 03:27:37;;;;;;;55.77;21.87;;;;;;;3.95;100.00;102541.34;2090569;28;20098;-68
2021/11/18 03:28:38;;;;;;;47.90;20.25;;;;;;;3.97;100.00;102545.69;2090763;28;20094;-69
2021/11/18 03:29:38;;;;;;;55.38;20.20;;;;;;;3.99;100.00;102548.28;2090565;28;20095;-68
2021/11/18 03:30:42;;;;;;;52.07;21.47;;;;;;;4.00;100.00;102550.00;2090644;28;20017;-68
2021/11/18 03:31:43;;;;;;;49.85;19.55;;;;;;;4.00;100.00;102537.09;2091218;28;20025;-68
2021/11/18 03:32:43;;;;;;;54.13;21.27;;;;;;;4.03;100.00;102544.03;2090567;28;20104;-68
2021/11/18 03:33:57;;;;;;;48.97;21.43;;;;;;;4.03;100.00;102544.88;2090648;28;20029;-68
2021/11/18 03:34:57;;;;;;;51.80;17.58;;;;;;;4.04;100.00;102549.19;2091135;28;20447;-69
2021/11/18 03:35:58;;;;;;;49.27;19.57;;;;;;;4.06;100.00;102547.50;2091121;28;20071;-68
2021/11/18 03:36:58;;;;;;;55.80;21.70;;;;;;;4.08;100.00;102550.97;2091227;28;20028;-69
2021/11/18 03:38:00;;;;;;;52.07;20.57;;;;;;;4.10;100.00;102544.13;2090531;28;20545;-69
2021/11/18 03:39:00;;;;;;;45.70;20.45;;;;;;;4.14;100.00;102549.34;2090550;28;20287;-69
2021/11/18 03:40:01;;;;;;;63.70;21.50;;;;;;;4.14;100.00;102545.00;2091179;28;20482;-68
2021/11/18 03:41:03;;;;;;;47.63;20.03;;;;;;;4.16;100.00;102545.03;2091106;28;20039;-69
2021/11/18 03:42:07;;;;;;;58.40;21.25;;;;;;;4.17;100.00;102544.19;2091113;28;20025;-69
2021/11/18 03:43:09;;;;;;;46.33;19.35;;;;;;;4.18;100.00;102548.50;2090440;28;20024;-69
2021/11/18 03:44:11;;;;;;;41.38;17.20;;;;;;;4.18;100.00;102545.94;2090495;28;20021;-69
2021/11/18 03:45:13;;;;;;;51.55;21.20;;;;;;;4.18;100.00;102551.09;2091067;28;20025;-69
2021/11/18 03:46:17;;;;;;;45.42;18.67;;;;;;;4.18;100.00;102543.34;2090398;28;20023;-69
2021/11/18 03:47:18;;;;;;;54.67;20.95;;;;;;;4.17;100.00;102544.19;2082364;28;20038;-69
2021/11/18 03:48:19;;;;;;;53.60;20.27;;;;;;;4.18;100.00;102546.78;2090426;28;20029;-69
2021/11/18 03:49:21;;;;;;;49.83;18.95;;;;;;;4.20;100.00;102544.22;2090977;28;20056;-69
2021/11/18 03:50:21;;;;;;;55.25;21.70;;;;;;;4.20;100.00;102551.97;2091109;28;20048;-69
2021/11/18 03:51:22;;;;;;;52.55;20.27;;;;;;;4.20;100.00;102545.09;2091153;28;20029;-69
2021/11/18 03:52:22;;;;;;;42.55;18.67;;;;;;;4.22;100.00;102547.69;2090383;28;20021;-68
2021/11/18 03:53:23;;;;;;;45.77;20.43;;;;;;;4.23;100.00;102539.09;2090529;28;20082;-68
2021/11/18 03:54:26;;;;;;;53.15;20.25;;;;;;;4.25;100.00;102550.31;2091072;28;20033;-70
2021/11/18 03:55:27;;;;;;;44.40;20.98;;;;;;;4.26;100.00;102549.47;2091024;28;20090;-69
2021/11/18 03:56:34;;;;;;;56.60;21.23;;;;;;;4.27;100.00;102561.53;2091030;28;20021;-69
2021/11/18 03:57:35;;;;;;;45.80;18.30;;;;;;;4.25;100.00;102553.75;2090377;28;20107;-69
2021/11/18 03:58:36;;;;;;;43.95;17.50;;;;;;;4.25;100.00;102551.16;2090368;28;20040;-69
2021/11/18 03:59:39;;;;;;;42.42;18.80;;;;;;;4.25;100.00;102547.75;2090358;28;20475;-69
2021/11/18 04:00:41;;;;;;;40.30;17.10;;;;;;;4.25;100.00;102558.09;2091048;28;20047;-69
2021/11/18 04:01:42;;;;;;;;;;;;;;;4.26;100.00;102554.63;2091468;28;20017;-68
2021/11/18 04:02:43;;;;;;;48.00;19.67;;;;;;;4.27;100.00;102558.09;2090328;28;19915;-68
2021/11/18 04:03:44;;;;;;;45.38;18.55;;;;;;;4.27;100.00;102560.69;2082149;28;20508;-68
2021/11/18 04:04:48;;;;;;;;;;;;;;;4.28;100.00;102568.47;2089915;28;20032;-69
2021/11/18 04:05:49;;;;;;;37.95;17.73;;;;;;;4.29;100.00;102569.31;2090310;28;19955;-68
2021/11/18 04:06:50;;;;;;;38.88;17.63;;;;;;;4.28;100.00;102558.13;2090363;28;20024;-68
2021/11/18 04:07:50;;;;;;;44.47;20.25;;;;;;;4.28;100.00;102560.72;2090897;28;20390;-68
2021/11/18 04:08:51;;;;;;;40.87;18.23;;;;;;;4.28;100.00;102565.88;2091023;28;20016;-70
2021/11/18 04:09:51;;;;;;;49.47;18.97;;;;;;;4.29;100.00;102564.13;2090963;28;20075;-69
2021/11/18 04:10:51;;;;;;;42.70;20.40;;;;;;;4.29;100.00;102557.25;2090914;28;20025;-68
2021/11/18 04:11:54;;;;;;;44.13;18.37;;;;;;;4.29;100.00;102559.84;2090913;28;20475;-69
2021/11/18 04:12:54;;;;;;;49.92;18.70;;;;;;;4.29;100.00;102562.44;2090313;28;20036;-69
2021/11/18 04:13:55;;;;;;;53.30;20.43;;;;;;;4.29;100.00;102558.97;2082053;28;20112;-69
2021/11/18 04:14:55;;;;;;;48.15;19.42;;;;;;;4.29;100.00;102567.59;2090320;28;20056;-70
2021/11/18 04:15:56;;;;;;;45.73;21.47;;;;;;;4.27;100.00;102564.13;2090846;28;20023;-69
2021/11/18 04:16:57;;;;;;;48.47;19.70;;;;;;;4.29;100.00;102566.72;2090980;28;20107;-69
2021/11/18 04:17:58;;;;;;;52.50;21.38;;;;;;;4.28;100.00;102568.47;2090174;28;20021;-67
2021/11/18 04:18:58;;;;;;;56.58;20.85;;;;;;;4.29;100.00;102572.78;2090329;28;20032;-68
2021/11/18 04:19:58;;;;;;;50.83;20.87;;;;;;;4.30;100.00;102571.03;2090801;28;20488;-70
2021/11/18 04:20:59;;;;;;;52.30;20.47;;;;;;;4.28;100.00;102563.28;2090847;28;20104;-68
2021/11/18 04:22:00;;;;;;;62.50;21.77;;;;;;;4.28;100.00;102568.47;2090129;28;20020;-68
2021/11/18 04:23:02;;;;;;;53.78;20.42;;;;;;;4.27;100.00;102564.13;2090219;28;20396;-69
2021/11/18 04:24:05;;;;;;;51.63;21.00;;;;;;;4.28;100.00;102558.13;2090713;28;20025;-69
2021/11/18 04:25:07;;;;;;;47.97;18.35;;;;;;;4.30;100.00;102561.56;2090006;28;20033;-69
2021/11/18 04:26:08;;;;;;;50.70;20.77;;;;;;;4.30;100.00;102551.25;2081939;28;20483;-69
2021/11/18 04:27:09;;;;;;;43.78;20.05;;;;;;;4.30;100.00;102555.53;2090219;28;20070;-68
2021/11/18 04:28:10;;;;;;;49.35;20.17;;;;;;;4.29;100.00;102554.69;2090553;28;20364;-68
2021/11/18 04:29:12;;;;;;;50.35;18.45;;;;;;;4.31;100.00;102557.28;2090846;28;20044;-68
2021/11/18 04:30:17;;;;;;;50.47;20.83;;;;;;;4.30;100.00;102556.41;2090743;28;20441;-68
2021/11/18 04:31:22;;;;;;;47.40;18.63;;;;;;;4.30;100.00;102556.41;2090768;28;20067;-68
2021/11/18 04:32:25;;;;;;;51.25;20.30;;;;;;;4.30;100.00;102556.41;2090702;28;20028;-68
2021/11/18 04:33:28;;;;;;;52.17;19.63;;;;;;;4.31;100.00;102557.28;2090726;28;20055;-68
2021/11/18 04:34:28;;;;;;;46.00;18.45;;;;;;;4.32;100.00;102559.91;2090740;28;20024;-68
2021/11/18 04:35:29;;;;;;;53.57;21.30;;;;;;;4.32;100.00;102559.91;2089988;28;20115;-68
2021/11/18 04:36:30;;;;;;;45.67;20.07;;;;;;;4.33;100.00;102556.44;2090100;28;20021;-69
2021/11/18 04:37:30;;;;;;;46.83;20.33;;;;;;;4.34;100.00;102560.75;2090878;28;20074;-67
2021/11/18 04:38:30;;;;;;;48.20;19.10;;;;;;;4.34;100.00;102560.75;2090030;28;20090;-68
2021/11/18 04:39:31;;;;;;;37.27;18.70;;;;;;;4.35;100.00;102559.91;2081830;28;20033;-68
2021/11/18 04:40:34;;;;;;;45.03;18.80;;;;;;;4.36;100.00;102556.50;2081846;28;20855;-70
2021/11/18 04:41:34;;;;;;;37.90;17.88;;;;;;;4.38;100.00;102559.09;2090115;28;20076;-68
2021/11/18 04:42:35;;;;;;;48.47;18.87;;;;;;;4.38;100.00;102559.94;2090732;28;20143;-70